• Join FlightAware (Why Join?)
  • Login
  • US Flag 
11:37PM EDT


 

Airport Tracker/Info


-or-


 

Live Flight TrackerFlight Track Log ✈ D-ABMP ✈ 11-Nov-2013 ✈ EDDL / DUS - EDDT / TXL

Flight Track Log - Related Links

Times and Time Zones

All times are in EST time to prevent confusion due to time zone crossing. See the D-ABMP flight status page for this flight to view local times or setup timezone preferences in your user account.

Time Position Orientation Groundspeed Altitude Reporting Facility
EST Latitude Longitude Course Direction KTS MPH feet Rate Location/Type
12:57AM 51.8470 9.3619 70° East  Level Estimated
12:58AM 51.8747 9.5003 72° East  Level Estimated
12:59AM 51.9023 9.6388 72° East  Level Estimated
01:00AM 51.9297 9.7774 72° East  Level Estimated
01:01AM 51.9570 9.9163 72° East  Level Estimated
01:02AM 51.9841 10.0553 72° East  Level Estimated
01:03AM 52.0110 10.1945 72° East  Level Estimated
01:04AM 52.0377 10.3338 73° East  Level Estimated
01:05AM 52.0643 10.4733 73° East  Level Estimated
01:06AM 52.0908 10.6130 73° East  Level Estimated
01:07AM 52.1171 10.7528 73° East  Level Estimated
01:08AM 52.1432 10.8928 73° East  Level Estimated
01:09AM 52.1691 11.0330 73° East  Level Estimated
01:10AM 52.1949 11.1734 73° East  Level Estimated
01:11AM 52.2205 11.3138 73° East  Level Estimated
01:12AM 52.2459 11.4545 73° East  Level Estimated
01:13AM 52.2712 11.5953 74° East  Level Estimated
01:14AM 52.2963 11.7363 74° East  Level Estimated
01:15AM 52.3212 11.8774 74° East  Level Estimated
01:16AM 52.3460 12.0187 74° East  Level Estimated
01:17AM 52.3706 12.1602 74° East  Level Estimated
01:18AM 52.3950 12.3018 74° East  Level Estimated
01:19AM 52.4193 12.4436 74° East  Level Estimated
01:20AM 52.4434 12.5855 74° East  Level Estimated
01:21AM 52.4673 12.7276 74° East  Level Estimated
01:22AM 52.4910 12.8698 75° East  Level Estimated
01:23AM 52.5146 13.0122 75° East  Level Estimated
01:24AM 52.5380 13.1547 75° East  Level Estimated
01:25AM 52.5597 13.2877 75° East  Level Estimated
01:26AM 52.5597 13.2877 171° South  Level Estimated
01:27AM 52.5597 13.2877 171° South  Level Estimated
01:28AM 52.5597 13.2877 171° South  Level Estimated
01:29AM 52.5597 13.2877 171° South  Level Estimated
01:30AM 52.5597 13.2877 171° South  Level Estimated
01:31AM 52.5597 13.2877 171° South  Level Estimated
01:32AM 52.5597 13.2877 171° South  Level Estimated
01:33AM 52.5597 13.2877 171° South  Level Estimated
01:34AM 52.5597 13.2877 171° South  Level Estimated
01:35AM 52.5597 13.2877 171° South  Level Estimated
01:36AM 52.5597 13.2877 171° South  Level Estimated
01:37AM 52.5597 13.2877 171° South  Level Estimated
01:38AM 52.5597 13.2877 171° South  Level Estimated
01:39AM 52.5597 13.2877 171° South  Level Estimated
01:40AM 52.5597 13.2877 171° South  Level Estimated
01:41AM 52.5597 13.2877 171° South  Level Estimated